createdAt,value
2023-04-18T00:00:14.328Z,512.00
2023-04-18T00:01:14.419Z,515.00
2023-04-18T00:02:14.414Z,526.00
2023-04-18T00:03:14.554Z,522.00
2023-04-18T00:04:14.828Z,524.00
2023-04-18T00:05:14.329Z,510.00
2023-04-18T00:06:14.305Z,511.00
2023-04-18T00:07:14.309Z,513.00
2023-04-18T00:08:14.281Z,517.00
2023-04-18T00:09:14.348Z,510.00
2023-04-18T00:10:14.308Z,507.00
2023-04-18T00:11:14.295Z,507.00
2023-04-18T00:12:14.256Z,506.00
2023-04-18T00:13:14.244Z,508.00
2023-04-18T00:14:14.491Z,503.00
2023-04-18T00:15:14.255Z,505.00
2023-04-18T00:16:14.326Z,510.00
2023-04-18T00:17:14.257Z,511.00
2023-04-18T00:18:14.208Z,510.00
2023-04-18T00:19:14.287Z,515.00
2023-04-18T00:20:14.196Z,508.00
2023-04-18T00:21:14.215Z,510.00
2023-04-18T00:22:14.177Z,509.00
2023-04-18T00:23:14.260Z,508.00
2023-04-18T00:24:14.388Z,512.00
2023-04-18T00:25:14.207Z,525.00
2023-04-18T00:26:14.175Z,515.00
2023-04-18T00:27:14.142Z,511.00
2023-04-18T00:28:14.145Z,509.00
2023-04-18T00:29:14.149Z,506.00
2023-04-18T00:30:14.164Z,507.00
2023-04-18T00:31:14.229Z,511.00
2023-04-18T00:32:14.113Z,507.00
2023-04-18T00:33:14.190Z,511.00
2023-04-18T00:34:14.350Z,506.00
2023-04-18T00:35:14.092Z,506.00
2023-04-18T00:36:14.090Z,505.00
2023-04-18T00:37:14.084Z,506.00
2023-04-18T00:38:14.088Z,505.00
2023-04-18T00:39:14.144Z,502.00
2023-04-18T00:40:14.058Z,508.00
2023-04-18T00:41:14.078Z,508.00
2023-04-18T00:42:14.062Z,513.00
2023-04-18T00:43:14.062Z,511.00
2023-04-18T00:44:14.451Z,505.00
2023-04-18T00:45:14.063Z,505.00
2023-04-18T00:46:14.058Z,505.00
2023-04-18T00:47:14.022Z,506.00
2023-04-18T00:48:14.006Z,507.00
2023-04-18T00:49:14.009Z,506.00
2023-04-18T00:50:14.014Z,506.00
2023-04-18T00:51:14.011Z,511.00
2023-04-18T00:52:13.980Z,513.00
2023-04-18T00:53:13.954Z,508.00
2023-04-18T00:54:14.163Z,506.00
2023-04-18T00:55:13.953Z,511.00
2023-04-18T00:56:13.951Z,506.00
2023-04-18T00:57:13.938Z,510.00
2023-04-18T00:58:13.974Z,506.00
2023-04-18T00:59:13.977Z,508.00
2023-04-18T01:00:13.923Z,508.00
2023-04-18T01:01:13.955Z,504.00
2023-04-18T01:02:13.940Z,511.00
2023-04-18T01:03:14.049Z,507.00
2023-04-18T01:04:14.422Z,507.00
2023-04-18T01:05:13.958Z,508.00
2023-04-18T01:06:13.935Z,507.00
2023-04-18T01:07:13.868Z,511.00
2023-04-18T01:08:13.861Z,507.00
2023-04-18T01:09:13.926Z,506.00
2023-04-18T01:10:13.873Z,502.00
2023-04-18T01:11:13.833Z,506.00
2023-04-18T01:12:13.961Z,504.00
2023-04-18T01:13:13.843Z,507.00
2023-04-18T01:14:14.045Z,507.00
2023-04-18T01:15:13.851Z,502.00
2023-04-18T01:16:13.913Z,504.00
2023-04-18T01:17:13.797Z,508.00
2023-04-18T01:18:13.830Z,509.00
2023-04-18T01:19:13.953Z,510.00
2023-04-18T01:20:13.822Z,511.00
2023-04-18T01:21:13.766Z,507.00
2023-04-18T01:22:13.791Z,515.00
2023-04-18T01:23:13.788Z,509.00
2023-04-18T01:24:13.874Z,503.00
2023-04-18T01:25:13.750Z,503.00
2023-04-18T01:26:13.775Z,507.00
2023-04-18T01:27:13.802Z,505.00
2023-04-18T01:28:13.809Z,511.00
2023-04-18T01:29:13.732Z,509.00
2023-04-18T01:30:13.721Z,508.00
2023-04-18T01:31:13.785Z,505.00
2023-04-18T01:32:13.712Z,514.00
2023-04-18T01:33:13.749Z,516.00
2023-04-18T01:34:13.820Z,513.00
2023-04-18T01:35:13.703Z,511.00
2023-04-18T01:36:13.692Z,504.00
2023-04-18T01:37:13.713Z,500.00
2023-04-18T01:38:13.689Z,505.00
2023-04-18T01:39:13.709Z,503.00
2023-04-18T01:40:13.676Z,505.00
2023-04-18T01:41:13.692Z,503.00
2023-04-18T01:42:13.651Z,508.00
2023-04-18T01:43:13.677Z,501.00
2023-04-18T01:44:13.954Z,506.00
2023-04-18T01:45:13.706Z,502.00
2023-04-18T01:46:13.678Z,502.00
2023-04-18T01:47:13.657Z,503.00
2023-04-18T01:48:13.642Z,501.00
2023-04-18T01:49:13.599Z,505.00
2023-04-18T01:50:13.617Z,505.00
2023-04-18T01:51:13.627Z,511.00
2023-04-18T01:52:13.594Z,512.00
2023-04-18T01:53:13.614Z,508.00
2023-04-18T01:54:13.746Z,505.00
2023-04-18T01:55:13.594Z,506.00
2023-04-18T01:56:13.554Z,505.00
2023-04-18T01:57:13.565Z,510.00
2023-04-18T01:58:13.578Z,511.00
2023-04-18T01:59:13.571Z,510.00
2023-04-18T02:00:13.537Z,504.00
2023-04-18T02:01:13.600Z,509.00
2023-04-18T02:02:13.633Z,505.00
2023-04-18T02:03:13.655Z,507.00
2023-04-18T02:04:13.887Z,512.00
2023-04-18T02:05:13.530Z,514.00
2023-04-18T02:06:13.486Z,514.00
2023-04-18T02:07:13.515Z,508.00
2023-04-18T02:08:13.470Z,512.00
2023-04-18T02:09:13.475Z,510.00
2023-04-18T02:10:13.466Z,511.00
2023-04-18T02:11:13.457Z,513.00
2023-04-18T02:12:13.427Z,508.00
2023-04-18T02:13:13.451Z,508.00
2023-04-18T02:14:13.505Z,508.00
2023-04-18T02:15:13.505Z,513.00
2023-04-18T02:16:13.433Z,507.00
2023-04-18T02:17:13.455Z,512.00
2023-04-18T02:18:13.397Z,512.00
2023-04-18T02:19:13.403Z,513.00
2023-04-18T02:20:13.388Z,511.00
2023-04-18T02:21:13.401Z,511.00
2023-04-18T02:22:13.386Z,510.00
2023-04-18T02:23:13.363Z,510.00
2023-04-18T02:24:13.582Z,508.00
2023-04-18T02:25:13.833Z,508.00
2023-04-18T02:26:13.348Z,504.00
2023-04-18T02:27:13.343Z,503.00
2023-04-18T02:28:13.342Z,504.00
2023-04-18T02:29:13.310Z,515.00
2023-04-18T02:30:13.346Z,510.00
2023-04-18T02:31:13.323Z,508.00
2023-04-18T02:32:13.354Z,510.00
2023-04-18T02:33:13.313Z,506.00
2023-04-18T02:34:13.578Z,511.00
2023-04-18T02:35:13.287Z,508.00
2023-04-18T02:36:13.340Z,511.00
2023-04-18T02:37:13.268Z,514.00
2023-04-18T02:38:13.275Z,518.00
2023-04-18T02:39:13.279Z,515.00
2023-04-18T02:40:13.299Z,512.00
2023-04-18T02:41:13.277Z,517.00
2023-04-18T02:42:13.249Z,513.00
2023-04-18T02:43:13.249Z,517.00
2023-04-18T02:44:13.299Z,509.00
2023-04-18T02:45:13.242Z,505.00
2023-04-18T02:46:13.256Z,508.00
2023-04-18T02:47:13.199Z,510.00
2023-04-18T02:48:13.220Z,506.00
2023-04-18T02:49:13.174Z,509.00
2023-04-18T02:50:13.194Z,511.00
2023-04-18T02:51:13.173Z,507.00
2023-04-18T02:52:13.164Z,509.00
2023-04-18T02:53:13.155Z,510.00
2023-04-18T02:54:13.365Z,513.00
2023-04-18T02:55:13.152Z,510.00
2023-04-18T02:56:13.188Z,510.00
2023-04-18T02:57:13.147Z,507.00
2023-04-18T02:58:13.111Z,512.00
2023-04-18T02:59:13.111Z,511.00
2023-04-18T03:00:13.108Z,512.00
2023-04-18T03:01:13.205Z,506.00
2023-04-18T03:02:13.132Z,506.00
2023-04-18T03:03:13.233Z,504.00
2023-04-18T03:04:13.493Z,509.00
2023-04-18T03:05:13.238Z,514.00
2023-04-18T03:06:13.263Z,508.00
2023-04-18T03:07:13.223Z,512.00
2023-04-18T03:08:13.225Z,503.00
2023-04-18T03:09:13.225Z,506.00
2023-04-18T03:10:13.203Z,507.00
2023-04-18T03:11:13.304Z,506.00
2023-04-18T03:12:13.226Z,508.00
2023-04-18T03:13:13.262Z,510.00
2023-04-18T03:14:13.374Z,508.00
2023-04-18T03:15:13.248Z,508.00
2023-04-18T03:16:13.343Z,512.00
2023-04-18T03:17:13.282Z,500.00
2023-04-18T03:18:13.295Z,505.00
2023-04-18T03:19:13.282Z,507.00
2023-04-18T03:20:13.348Z,506.00
2023-04-18T03:21:13.360Z,508.00
2023-04-18T03:22:13.336Z,509.00
2023-04-18T03:23:13.448Z,502.00
2023-04-18T03:24:13.654Z,508.00
2023-04-18T03:25:13.356Z,509.00
2023-04-18T03:26:13.339Z,509.00
2023-04-18T03:27:13.373Z,506.00
2023-04-18T03:28:13.384Z,515.00
2023-04-18T03:29:13.428Z,514.00
2023-04-18T03:30:13.426Z,510.00
2023-04-18T03:31:13.550Z,514.00
2023-04-18T03:32:13.407Z,502.00
2023-04-18T03:33:13.437Z,509.00
2023-04-18T03:34:13.698Z,505.00
2023-04-18T03:35:13.536Z,503.00
2023-04-18T03:36:13.488Z,513.00
2023-04-18T03:37:13.484Z,504.00
2023-04-18T03:38:13.488Z,507.00
2023-04-18T03:39:13.554Z,506.00
2023-04-18T03:40:13.565Z,510.00
2023-04-18T03:41:13.529Z,507.00
2023-04-18T03:42:13.615Z,509.00
2023-04-18T03:43:13.619Z,505.00
2023-04-18T03:44:13.908Z,511.00
2023-04-18T03:45:13.686Z,511.00
2023-04-18T03:46:13.760Z,508.00
2023-04-18T03:47:13.730Z,513.00
2023-04-18T03:48:13.802Z,508.00
2023-04-18T03:49:13.835Z,511.00
2023-04-18T03:50:13.866Z,512.00
2023-04-18T03:51:13.917Z,507.00
2023-04-18T03:52:13.940Z,510.00
2023-04-18T03:53:13.958Z,510.00
2023-04-18T03:54:14.116Z,510.00
2023-04-18T03:55:14.011Z,516.00
2023-04-18T03:56:14.005Z,507.00
2023-04-18T03:57:14.028Z,509.00
2023-04-18T03:58:14.051Z,505.00
2023-04-18T03:59:14.052Z,510.00
2023-04-18T04:00:14.095Z,503.00
2023-04-18T04:01:14.108Z,514.00
2023-04-18T04:02:14.204Z,509.00
2023-04-18T04:03:14.269Z,508.00
2023-04-18T04:04:14.531Z,511.00
2023-04-18T04:05:14.228Z,512.00
2023-04-18T04:06:14.216Z,507.00
2023-04-18T04:07:14.220Z,506.00
2023-04-18T04:08:14.236Z,505.00
2023-04-18T04:09:14.254Z,515.00
2023-04-18T04:10:14.274Z,516.00
2023-04-18T04:11:14.271Z,512.00
2023-04-18T04:12:14.317Z,509.00
2023-04-18T04:13:14.293Z,508.00
2023-04-18T04:14:14.494Z,516.00
2023-04-18T04:15:14.314Z,508.00
2023-04-18T04:16:14.350Z,507.00
2023-04-18T04:17:14.298Z,510.00
2023-04-18T04:18:14.324Z,507.00
2023-04-18T04:19:14.335Z,505.00
2023-04-18T04:20:14.378Z,513.00
2023-04-18T04:21:14.403Z,509.00
2023-04-18T04:22:14.352Z,511.00
2023-04-18T04:23:14.408Z,511.00
2023-04-18T04:24:14.524Z,511.00
2023-04-18T04:25:14.404Z,514.00
2023-04-18T04:26:14.418Z,513.00
2023-04-18T04:27:14.444Z,511.00
2023-04-18T04:28:14.416Z,510.00
2023-04-18T04:29:14.424Z,518.00
2023-04-18T04:30:14.442Z,512.00
2023-04-18T04:31:14.472Z,506.00
2023-04-18T04:32:14.474Z,509.00
2023-04-18T04:33:14.452Z,512.00
2023-04-18T04:34:14.691Z,511.00
2023-04-18T04:35:14.997Z,512.00
2023-04-18T04:36:14.555Z,513.00
2023-04-18T04:37:14.468Z,508.00
2023-04-18T04:38:14.545Z,510.00
2023-04-18T04:39:14.511Z,509.00
2023-04-18T04:40:14.526Z,504.00
2023-04-18T04:41:14.559Z,522.00
2023-04-18T04:42:14.555Z,511.00
2023-04-18T04:43:14.583Z,513.00
2023-04-18T04:44:14.795Z,511.00
2023-04-18T04:45:14.578Z,520.00
2023-04-18T04:46:14.669Z,512.00
2023-04-18T04:47:14.654Z,520.00
2023-04-18T04:48:14.645Z,512.00
2023-04-18T04:49:14.769Z,506.00
2023-04-18T04:50:14.746Z,511.00
2023-04-18T04:51:14.651Z,507.00
2023-04-18T04:52:14.649Z,509.00
2023-04-18T04:53:14.678Z,513.00
2023-04-18T04:54:14.752Z,508.00
2023-04-18T04:55:14.721Z,508.00
2023-04-18T04:56:14.689Z,512.00
2023-04-18T04:57:14.777Z,509.00
2023-04-18T04:58:14.756Z,505.00
2023-04-18T04:59:14.746Z,503.00
2023-04-18T05:00:14.801Z,510.00
2023-04-18T05:01:14.790Z,504.00
2023-04-18T05:02:14.893Z,505.00
2023-04-18T05:03:14.930Z,508.00
2023-04-18T05:04:15.069Z,508.00
2023-04-18T05:05:14.893Z,508.00
2023-04-18T05:06:14.880Z,508.00
2023-04-18T05:07:14.988Z,505.00
2023-04-18T05:08:14.966Z,509.00
2023-04-18T05:09:14.967Z,503.00
2023-04-18T05:10:14.993Z,507.00
2023-04-18T05:11:15.151Z,505.00
2023-04-18T05:12:15.054Z,508.00
2023-04-18T05:13:15.134Z,512.00
2023-04-18T05:14:15.275Z,502.00
2023-04-18T05:15:15.092Z,509.00
2023-04-18T05:16:15.144Z,504.00
2023-04-18T05:17:15.179Z,505.00
2023-04-18T05:18:15.134Z,509.00
2023-04-18T05:19:15.217Z,505.00
2023-04-18T05:20:15.184Z,508.00
2023-04-18T05:21:15.211Z,504.00
2023-04-18T05:22:15.219Z,510.00
2023-04-18T05:23:15.402Z,510.00
2023-04-18T05:24:15.420Z,510.00
2023-04-18T05:25:15.323Z,507.00
2023-04-18T05:26:15.319Z,510.00
2023-04-18T05:27:17.665Z,506.00
2023-04-18T05:28:15.410Z,510.00
2023-04-18T05:29:15.363Z,507.00
2023-04-18T05:30:15.326Z,509.00
2023-04-18T05:31:15.377Z,507.00
2023-04-18T05:32:15.325Z,501.00
2023-04-18T05:33:15.299Z,503.00
2023-04-18T05:34:16.067Z,509.00
2023-04-18T05:35:15.316Z,514.00
2023-04-18T05:36:15.347Z,515.00
2023-04-18T05:37:15.255Z,597.00
2023-04-18T05:38:15.293Z,555.00
2023-04-18T05:39:15.251Z,539.00
2023-04-18T05:40:15.414Z,540.00
2023-04-18T05:41:15.918Z,547.00
2023-04-18T05:42:15.305Z,544.00
2023-04-18T05:43:15.410Z,551.00
2023-04-18T05:44:15.239Z,559.00
2023-04-18T05:45:15.433Z,597.00
2023-04-18T05:46:15.251Z,627.00
2023-04-18T05:47:15.215Z,639.00
2023-04-18T05:48:15.178Z,619.00
2023-04-18T05:49:15.176Z,630.00
2023-04-18T05:50:15.444Z,628.00
2023-04-18T05:51:15.302Z,643.00
2023-04-18T05:52:15.220Z,657.00
2023-04-18T05:53:15.419Z,664.00
2023-04-18T05:54:15.238Z,697.00
2023-04-18T05:55:15.157Z,704.00
2023-04-18T05:56:15.151Z,726.00
2023-04-18T05:57:15.140Z,735.00
2023-04-18T05:58:15.100Z,769.00
2023-04-18T05:59:15.131Z,777.00
2023-04-18T06:00:15.171Z,821.00
2023-04-18T06:01:15.059Z,831.00
2023-04-18T06:02:15.186Z,850.00
2023-04-18T06:03:15.271Z,855.00
2023-04-18T06:04:15.355Z,874.00
2023-04-18T06:05:15.428Z,895.00
2023-04-18T06:06:15.053Z,916.00
2023-04-18T06:07:15.082Z,951.00
2023-04-18T06:08:15.138Z,964.00
2023-04-18T06:09:15.129Z,1040.00
2023-04-18T06:10:15.179Z,1073.00
2023-04-18T06:11:15.228Z,1072.00
2023-04-18T06:12:15.303Z,1082.00
2023-04-18T06:13:15.271Z,1064.00
2023-04-18T06:14:15.805Z,1083.00
2023-04-18T06:15:15.296Z,1101.00
2023-04-18T06:16:15.363Z,1108.00
2023-04-18T06:17:15.343Z,1128.00
2023-04-18T06:18:15.411Z,1150.00
2023-04-18T06:19:15.392Z,1176.00
2023-04-18T06:20:15.408Z,1204.00
2023-04-18T06:21:15.427Z,1201.00
2023-04-18T06:22:15.452Z,1241.00
2023-04-18T06:23:15.501Z,1235.00
2023-04-18T06:24:15.755Z,1249.00
2023-04-18T06:25:15.503Z,1251.00
2023-04-18T06:26:15.526Z,1251.00
2023-04-18T06:27:30.204Z,1260.00
2023-04-18T06:28:16.639Z,1262.00
2023-04-18T06:29:15.522Z,1266.00
2023-04-18T06:30:15.520Z,1276.00
2023-04-18T06:31:15.544Z,1299.00
2023-04-18T06:32:15.484Z,1327.00
2023-04-18T06:33:15.525Z,1347.00
2023-04-18T06:34:15.802Z,1351.00
2023-04-18T06:35:15.512Z,1347.00
2023-04-18T06:36:15.477Z,1368.00
2023-04-18T06:37:15.463Z,1404.00
2023-04-18T06:38:15.984Z,1446.00
2023-04-18T06:39:16.454Z,1483.00
2023-04-18T06:40:15.999Z,1402.00
2023-04-18T06:41:15.481Z,1353.00
2023-04-18T06:42:15.457Z,1300.00
2023-04-18T06:43:15.544Z,1227.00
2023-04-18T06:44:15.481Z,1107.00
2023-04-18T06:45:15.472Z,1087.00
2023-04-18T06:46:15.414Z,1080.00
2023-04-18T06:47:15.381Z,1090.00
2023-04-18T06:48:15.407Z,1085.00
2023-04-18T06:49:15.449Z,1083.00
2023-04-18T06:50:15.493Z,1057.00
2023-04-18T06:51:15.395Z,1063.00
2023-04-18T06:52:15.384Z,1085.00
2023-04-18T06:53:15.434Z,1067.00
2023-04-18T06:54:15.556Z,1066.00
2023-04-18T06:55:15.402Z,1102.00
2023-04-18T06:56:15.420Z,1104.00
2023-04-18T06:57:15.541Z,1120.00
2023-04-18T06:58:15.691Z,1115.00
2023-04-18T06:59:15.933Z,1130.00
2023-04-18T07:00:15.954Z,1151.00
2023-04-18T07:01:16.020Z,1155.00
2023-04-18T07:02:16.071Z,1165.00
2023-04-18T07:03:16.088Z,1173.00
2023-04-18T07:04:16.258Z,1188.00
2023-04-18T07:05:17.461Z,1193.00
2023-04-18T07:06:15.954Z,1197.00
2023-04-18T07:07:15.924Z,1209.00
2023-04-18T07:08:16.420Z,1218.00
2023-04-18T07:09:16.205Z,1234.00
2023-04-18T07:10:16.002Z,1243.00
2023-04-18T07:11:15.992Z,1251.00
2023-04-18T07:12:16.120Z,1262.00
2023-04-18T07:13:16.194Z,1283.00
2023-04-18T07:14:16.551Z,1287.00
2023-04-18T07:15:16.416Z,1315.00
2023-04-18T07:16:16.563Z,1309.00
2023-04-18T07:17:16.530Z,1320.00
2023-04-18T07:18:26.530Z,1334.00
2023-04-18T07:19:17.442Z,1336.00
2023-04-18T07:20:16.476Z,1340.00
2023-04-18T07:21:16.461Z,1359.00
2023-04-18T07:22:16.412Z,1379.00
2023-04-18T07:23:16.474Z,1407.00
2023-04-18T07:24:16.578Z,1424.00
2023-04-18T07:25:16.540Z,1440.00
2023-04-18T07:26:16.386Z,1438.00
2023-04-18T07:27:16.381Z,1450.00
2023-04-18T07:28:16.374Z,1455.00
2023-04-18T07:29:16.552Z,1465.00
2023-04-18T07:30:16.573Z,1463.00
2023-04-18T07:31:16.728Z,1495.00
2023-04-18T07:32:17.440Z,1481.00
2023-04-18T07:33:16.574Z,1485.00
2023-04-18T07:34:16.985Z,1515.00
2023-04-18T07:35:16.654Z,1493.00
2023-04-18T07:36:16.679Z,1466.00
2023-04-18T07:37:16.699Z,1439.00
2023-04-18T07:38:16.735Z,1361.00
2023-04-18T07:39:16.991Z,1294.00
2023-04-18T07:40:17.013Z,1298.00
2023-04-18T07:41:16.775Z,1336.00
2023-04-18T07:42:16.814Z,1338.00
2023-04-18T07:43:16.865Z,1334.00
2023-04-18T07:44:16.890Z,1320.00
2023-04-18T07:45:16.822Z,1320.00
2023-04-18T07:46:16.871Z,1303.00
2023-04-18T07:47:16.832Z,1286.00
2023-04-18T07:48:16.996Z,1273.00
2023-04-18T07:49:17.069Z,1256.00
2023-04-18T07:50:17.141Z,1254.00
2023-04-18T07:51:17.507Z,1241.00
2023-04-18T07:52:17.128Z,1224.00
2023-04-18T07:53:17.191Z,1213.00
2023-04-18T07:54:17.232Z,1201.00
2023-04-18T07:55:17.131Z,1193.00
2023-04-18T07:56:17.504Z,1180.00
2023-04-18T07:57:17.250Z,1186.00
2023-04-18T07:58:17.351Z,1165.00
2023-04-18T07:59:17.493Z,1163.00
2023-04-18T08:00:17.425Z,1147.00
2023-04-18T08:01:17.491Z,1128.00
2023-04-18T08:02:17.544Z,1144.00
2023-04-18T08:03:17.526Z,1137.00
2023-04-18T08:04:17.622Z,1124.00
2023-04-18T08:05:17.562Z,1107.00
2023-04-18T08:06:17.481Z,1106.00
2023-04-18T08:07:17.503Z,1105.00
2023-04-18T08:08:17.594Z,1084.00
2023-04-18T08:09:17.532Z,1086.00
2023-04-18T08:10:17.547Z,1077.00
2023-04-18T08:11:17.583Z,1073.00
2023-04-18T08:12:17.596Z,1038.00
2023-04-18T08:13:17.633Z,1069.00
2023-04-18T08:14:17.644Z,1067.00
2023-04-18T08:15:17.644Z,1029.00
2023-04-18T08:16:17.857Z,1041.00
2023-04-18T08:17:17.720Z,1021.00
2023-04-18T08:18:17.719Z,1035.00
2023-04-18T08:19:17.764Z,1040.00
2023-04-18T08:20:17.748Z,1016.00
2023-04-18T08:21:17.766Z,1021.00
2023-04-18T08:22:17.783Z,1011.00
2023-04-18T08:23:18.528Z,1020.00
2023-04-18T08:24:17.906Z,988.00
2023-04-18T08:25:17.877Z,986.00
2023-04-18T08:26:18.007Z,985.00
2023-04-18T08:27:17.880Z,993.00
2023-04-18T08:28:17.952Z,981.00
2023-04-18T08:29:18.025Z,973.00
2023-04-18T08:30:17.989Z,1021.00
2023-04-18T08:31:18.051Z,990.00
2023-04-18T08:32:17.976Z,951.00
2023-04-18T08:33:18.992Z,922.00
2023-04-18T08:34:18.524Z,946.00
2023-04-18T08:35:18.018Z,922.00
2023-04-18T08:36:18.044Z,932.00
2023-04-18T08:37:18.069Z,933.00
2023-04-18T08:38:18.143Z,948.00
2023-04-18T08:39:18.102Z,916.00
2023-04-18T08:40:18.500Z,882.00
2023-04-18T08:41:18.490Z,857.00
2023-04-18T08:42:18.992Z,727.00
2023-04-18T08:43:18.196Z,658.00
2023-04-18T08:44:18.245Z,616.00
2023-04-18T08:45:18.383Z,630.00
2023-04-18T08:46:18.513Z,628.00
2023-04-18T08:47:18.237Z,626.00
2023-04-18T08:48:18.371Z,629.00
2023-04-18T08:49:18.509Z,623.00
2023-04-18T08:50:18.537Z,629.00
2023-04-18T08:51:18.989Z,626.00
2023-04-18T08:52:18.541Z,623.00
2023-04-18T08:53:18.696Z,626.00
2023-04-18T08:54:18.738Z,613.00
2023-04-18T08:55:19.508Z,607.00
2023-04-18T08:56:18.985Z,606.00
2023-04-18T08:57:18.657Z,608.00
2023-04-18T08:58:18.668Z,605.00
2023-04-18T08:59:18.744Z,601.00
2023-04-18T09:00:18.998Z,614.00
2023-04-18T09:01:18.899Z,619.00
2023-04-18T09:02:18.925Z,608.00
2023-04-18T09:03:18.942Z,600.00
2023-04-18T09:04:19.054Z,598.00
2023-04-18T09:05:19.243Z,591.00
2023-04-18T09:06:19.455Z,589.00
2023-04-18T09:07:19.184Z,583.00
2023-04-18T09:08:19.260Z,573.00
2023-04-18T09:09:19.288Z,555.00
2023-04-18T09:10:19.350Z,523.00
2023-04-18T09:11:19.429Z,500.00
2023-04-18T09:12:19.545Z,499.00
2023-04-18T09:13:19.506Z,508.00
2023-04-18T09:14:19.531Z,514.00
2023-04-18T09:15:20.039Z,502.00
2023-04-18T09:16:19.675Z,500.00
2023-04-18T09:17:19.646Z,500.00
2023-04-18T09:18:19.702Z,500.00
2023-04-18T09:19:19.764Z,503.00
2023-04-18T09:20:19.986Z,505.00
2023-04-18T09:21:20.072Z,500.00
2023-04-18T09:22:19.838Z,527.00
2023-04-18T09:23:19.916Z,533.00
2023-04-18T09:24:19.937Z,527.00
2023-04-18T09:25:19.944Z,528.00
2023-04-18T09:26:19.980Z,520.00
2023-04-18T09:27:20.138Z,511.00
2023-04-18T09:28:20.088Z,516.00
2023-04-18T09:29:20.088Z,533.00
2023-04-18T09:30:20.131Z,527.00
2023-04-18T09:31:20.231Z,511.00
2023-04-18T09:32:20.400Z,522.00
2023-04-18T09:33:20.243Z,500.00
2023-04-18T09:34:20.267Z,501.00
2023-04-18T09:35:20.498Z,512.00
2023-04-18T09:36:20.462Z,517.00
2023-04-18T09:37:20.394Z,523.00
2023-04-18T09:38:20.444Z,543.00
2023-04-18T09:39:21.197Z,488.00
2023-04-18T09:40:20.583Z,494.00
2023-04-18T09:41:21.603Z,522.00
2023-04-18T09:42:20.736Z,576.00
2023-04-18T09:43:20.751Z,575.00
2023-04-18T09:44:21.010Z,564.00
2023-04-18T09:45:20.857Z,587.00
2023-04-18T09:46:20.878Z,564.00
2023-04-18T09:47:20.947Z,550.00
2023-04-18T09:48:21.005Z,486.00
2023-04-18T09:49:21.088Z,500.00
2023-04-18T09:50:22.024Z,550.00
2023-04-18T09:51:21.545Z,440.00
2023-04-18T09:52:21.258Z,512.00
2023-04-18T09:53:21.310Z,503.00
2023-04-18T09:54:21.408Z,544.00
2023-04-18T09:55:21.425Z,612.00
2023-04-18T09:56:21.556Z,617.00
2023-04-18T09:57:21.543Z,610.00
2023-04-18T09:58:21.701Z,608.00
2023-04-18T09:59:21.657Z,598.00
2023-04-18T10:00:21.833Z,588.00
2023-04-18T10:01:21.924Z,675.00
2023-04-18T10:02:22.012Z,625.00
2023-04-18T10:03:22.034Z,610.00
2023-04-18T10:04:22.155Z,593.00
2023-04-18T10:05:22.109Z,614.00
2023-04-18T10:06:22.107Z,675.00
2023-04-18T10:07:22.126Z,623.00
2023-04-18T10:08:22.259Z,612.00
2023-04-18T10:09:22.283Z,544.00
2023-04-18T10:10:22.424Z,591.00
2023-04-18T10:11:22.402Z,604.00
2023-04-18T10:12:22.458Z,626.00
2023-04-18T10:13:22.564Z,640.00
2023-04-18T10:14:22.646Z,648.00
2023-04-18T10:15:22.672Z,609.00
2023-04-18T10:16:22.749Z,647.00
2023-04-18T10:17:22.813Z,637.00
2023-04-18T10:18:22.930Z,645.00
2023-04-18T10:19:22.847Z,631.00
2023-04-18T10:20:22.965Z,665.00
2023-04-18T10:21:23.014Z,592.00
2023-04-18T10:22:23.022Z,605.00
2023-04-18T10:23:23.064Z,601.00
2023-04-18T10:24:23.158Z,579.00
2023-04-18T10:25:23.311Z,569.00
2023-04-18T10:26:23.633Z,500.00
2023-04-18T10:27:23.332Z,572.00
2023-04-18T10:28:23.307Z,611.00
2023-04-18T10:29:23.353Z,647.00
2023-04-18T10:30:23.577Z,659.00
2023-04-18T10:31:23.638Z,627.00
2023-04-18T10:32:23.653Z,529.00
2023-04-18T10:33:30.338Z,623.00
2023-04-18T10:34:24.668Z,611.00
2023-04-18T10:35:23.582Z,631.00
2023-04-18T10:36:23.592Z,636.00
2023-04-18T10:37:23.566Z,653.00
2023-04-18T10:38:23.597Z,631.00
2023-04-18T10:39:23.573Z,665.00
2023-04-18T10:40:23.535Z,722.00
2023-04-18T10:41:23.605Z,661.00
2023-04-18T10:42:23.611Z,667.00
2023-04-18T10:43:23.692Z,760.00
2023-04-18T10:44:24.059Z,787.00
2023-04-18T10:45:23.775Z,810.00
2023-04-18T10:46:31.904Z,818.00
2023-04-18T10:47:24.961Z,821.00
2023-04-18T10:48:23.903Z,824.00
2023-04-18T10:49:26.063Z,833.00
2023-04-18T10:50:23.812Z,820.00
2023-04-18T10:51:23.842Z,828.00
2023-04-18T10:52:23.817Z,845.00
2023-04-18T10:53:23.761Z,889.00
2023-04-18T10:54:23.771Z,949.00
2023-04-18T10:55:23.776Z,999.00
2023-04-18T10:56:23.777Z,904.00
2023-04-18T10:57:23.733Z,886.00
2023-04-18T10:58:23.757Z,883.00
2023-04-18T10:59:23.754Z,834.00
2023-04-18T11:00:23.710Z,857.00
2023-04-18T11:01:23.838Z,863.00
2023-04-18T11:02:23.854Z,862.00
2023-04-18T11:03:23.784Z,857.00
2023-04-18T11:04:23.722Z,901.00
2023-04-18T11:05:23.687Z,898.00
2023-04-18T11:06:23.676Z,899.00
2023-04-18T11:07:23.717Z,927.00
2023-04-18T11:08:23.689Z,947.00
2023-04-18T11:09:23.757Z,914.00
2023-04-18T11:10:23.775Z,901.00
2023-04-18T11:11:23.641Z,908.00
2023-04-18T11:12:23.671Z,830.00
2023-04-18T11:13:23.682Z,890.00
2023-04-18T11:14:23.770Z,871.00
2023-04-18T11:15:23.661Z,968.00
2023-04-18T11:16:23.634Z,974.00
2023-04-18T11:17:23.709Z,586.00
2023-04-18T11:18:23.615Z,660.00
2023-04-18T11:19:23.739Z,656.00
2023-04-18T11:20:23.664Z,646.00
2023-04-18T11:21:23.691Z,625.00
2023-04-18T11:22:23.806Z,672.00
2023-04-18T11:23:23.882Z,664.00
2023-04-18T11:24:23.892Z,662.00
2023-04-18T11:25:23.912Z,623.00
2023-04-18T11:26:23.989Z,551.00
2023-04-18T11:27:24.104Z,492.00
2023-04-18T11:28:23.999Z,599.00
2023-04-18T11:29:24.040Z,627.00
2023-04-18T11:30:24.052Z,573.00
2023-04-18T11:31:24.219Z,575.00
2023-04-18T11:32:24.408Z,597.00
2023-04-18T11:33:24.300Z,618.00
2023-04-18T11:34:24.233Z,611.00
2023-04-18T11:35:24.265Z,588.00
2023-04-18T11:36:24.243Z,627.00
2023-04-18T11:37:24.300Z,634.00
2023-04-18T11:38:24.374Z,589.00
2023-04-18T11:39:24.513Z,541.00
2023-04-18T11:40:24.485Z,544.00
2023-04-18T11:41:24.457Z,542.00
2023-04-18T11:42:24.542Z,506.00
2023-04-18T11:43:24.454Z,522.00
2023-04-18T11:44:24.502Z,498.00
2023-04-18T11:45:24.595Z,492.00
2023-04-18T11:46:24.741Z,577.00
2023-04-18T11:47:24.850Z,600.00
2023-04-18T11:48:24.883Z,561.00
2023-04-18T11:49:24.812Z,494.00
2023-04-18T11:50:24.859Z,549.00
2023-04-18T11:51:24.834Z,514.00
2023-04-18T11:52:24.933Z,544.00
2023-04-18T11:53:24.988Z,539.00
2023-04-18T11:54:25.118Z,538.00
2023-04-18T11:55:25.103Z,599.00
2023-04-18T11:56:25.134Z,595.00
2023-04-18T11:57:25.107Z,569.00
2023-04-18T11:58:25.090Z,559.00
2023-04-18T11:59:25.100Z,539.00
2023-04-18T12:00:25.106Z,607.00
2023-04-18T12:01:25.139Z,505.00
2023-04-18T12:02:25.266Z,539.00
2023-04-18T12:03:25.476Z,563.00
2023-04-18T12:04:25.483Z,467.00
2023-04-18T12:05:25.346Z,525.00
2023-04-18T12:06:25.319Z,490.00
2023-04-18T12:07:25.571Z,510.00
2023-04-18T12:08:25.317Z,516.00
2023-04-18T12:09:25.288Z,511.00
2023-04-18T12:10:25.313Z,516.00
2023-04-18T12:11:25.323Z,535.00
2023-04-18T12:12:25.385Z,563.00
2023-04-18T12:13:25.383Z,578.00
2023-04-18T12:14:25.375Z,565.00
2023-04-18T12:15:25.443Z,614.00
2023-04-18T12:16:25.561Z,588.00
2023-04-18T12:17:25.465Z,618.00
2023-04-18T12:18:25.478Z,512.00
2023-04-18T12:19:25.489Z,458.00
2023-04-18T12:20:25.549Z,473.00
2023-04-18T12:21:25.562Z,425.00
2023-04-18T12:22:25.584Z,512.00
2023-04-18T12:23:25.643Z,613.00
2023-04-18T12:24:25.661Z,704.00